sensor_id;sensor_type;location;lat;lon;timestamp;pressure;altitude;pressure_sealevel;temperature;humidity
31162;BME280;17796;49.296;-117.656;2023-09-19T00:08:44;95700;;;20.69138;33.55245
31162;BME280;17796;49.296;-117.656;2023-09-19T00:23:48;95800;;;19.18929;38.30785
31162;BME280;17796;49.296;-117.656;2023-09-19T00:38:51;95800;;;18.25546;43.78123
31162;BME280;17796;49.296;-117.656;2023-09-19T00:53:55;95800;;;17.33371;50.36314
31162;BME280;17796;49.296;-117.656;2023-09-19T01:08:59;95800;;;16.68798;55.37886
31162;BME280;17796;49.296;-117.656;2023-09-19T01:24:10;95800;;;16.14231;54.67496
31162;BME280;17796;49.296;-117.656;2023-09-19T01:39:36;95800;;;14.87596;62.91865
31162;BME280;17796;49.296;-117.656;2023-09-19T01:54:41;95800;;;15.97333;55.77008
31162;BME280;17796;49.296;-117.656;2023-09-19T02:09:52;95800;;;15.18628;57.13018
31162;BME280;17796;49.296;-117.656;2023-09-19T02:24:56;95900;;;15.03287;55.49682
31162;BME280;17796;49.296;-117.656;2023-09-19T02:40:00;95900;;;13.10782;55.97057
31162;BME280;17796;49.296;-117.656;2023-09-19T02:55:04;95900;;;13.74145;64.04154
31162;BME280;17796;49.296;-117.656;2023-09-19T03:10:10;95900;;;13.58709;57.34402
31162;BME280;17796;49.296;-117.656;2023-09-19T03:25:16;96000;;;13.68555;63.08184
31162;BME280;17796;49.296;-117.656;2023-09-19T03:40:19;96000;;;13.5169;60.92737
31162;BME280;17796;49.296;-117.656;2023-09-19T03:55:23;96000;;;12.91185;56.65957
31162;BME280;17796;49.296;-117.656;2023-09-19T04:10:27;96100;;;12.69238;54.78854
31162;BME280;17796;49.296;-117.656;2023-09-19T04:25:30;96100;;;11.31684;69.29283
31162;BME280;17796;49.296;-117.656;2023-09-19T04:40:34;96100;;;11.20218;64.49443
31162;BME280;17796;49.296;-117.656;2023-09-19T04:55:37;96100;;;10.77501;57.48075
31162;BME280;17796;49.296;-117.656;2023-09-19T05:10:41;96100;;;11.60586;51.59652
31162;BME280;17796;49.296;-117.656;2023-09-19T05:25:44;96100;;;11.32668;52.24376
31162;BME280;17796;49.296;-117.656;2023-09-19T05:40:48;96100;;;11.06498;51.32676
31162;BME280;17796;49.296;-117.656;2023-09-19T05:55:52;96100;;;10.81884;54.66471
31162;BME280;17796;49.296;-117.656;2023-09-19T06:10:56;96100;;;10.83503;51.08315
31162;BME280;17796;49.296;-117.656;2023-09-19T06:25:59;96200;;;10.48282;51.05059
31162;BME280;17796;49.296;-117.656;2023-09-19T06:41:03;96200;;;9.71518;55.4905
31162;BME280;17796;49.296;-117.656;2023-09-19T06:56:07;96200;;;9.2877;55.51888
31162;BME280;17796;49.296;-117.656;2023-09-19T07:11:10;96200;;;9.28897;53.67609
31162;BME280;17796;49.296;-117.656;2023-09-19T07:26:14;96200;;;8.68268;58.10247
31162;BME280;17796;49.296;-117.656;2023-09-19T07:41:18;96200;;;7.95444;60.01053
31162;BME280;17796;49.296;-117.656;2023-09-19T07:56:22;96200;;;8.34508;56.86609
31162;BME280;17796;49.296;-117.656;2023-09-19T08:11:27;96300;;;7.98429;61.84029
31162;BME280;17796;49.296;-117.656;2023-09-19T08:26:32;96300;;;8.11927;68.31083
31162;BME280;17796;49.296;-117.656;2023-09-19T08:41:36;96300;;;8.03733;68.04817
31162;BME280;17796;49.296;-117.656;2023-09-19T08:56:39;96300;;;7.802;69.76607
31162;BME280;17796;49.296;-117.656;2023-09-19T09:11:48;96300;;;7.52125;69.48951
31162;BME280;17796;49.296;-117.656;2023-09-19T09:26:52;96300;;;7.06106;69.51206
31162;BME280;17796;49.296;-117.656;2023-09-19T09:41:55;96300;;;7.18937;67.65599
31162;BME280;17796;49.296;-117.656;2023-09-19T09:56:59;96300;;;7.12172;70.26772
31162;BME280;17796;49.296;-117.656;2023-09-19T10:12:05;96300;;;6.49608;75.87317
31162;BME280;17796;49.296;-117.656;2023-09-19T10:27:12;96300;;;6.53101;77.07426
31162;BME280;17796;49.296;-117.656;2023-09-19T10:42:18;96300;;;6.58818;77.31233
31162;BME280;17796;49.296;-117.656;2023-09-19T10:57:25;96300;;;6.52371;76.98488
31162;BME280;17796;49.296;-117.656;2023-09-19T11:12:50;96300;;;6.01271;79.6964
31162;BME280;17796;49.296;-117.656;2023-09-19T11:28:30;96300;;;6.15689;75.03981
31162;BME280;17796;49.296;-117.656;2023-09-19T11:43:34;96300;;;5.88504;77.47576
31162;BME280;17796;49.296;-117.656;2023-09-19T11:58:38;96300;;;5.46837;80.27413
31162;BME280;17796;49.296;-117.656;2023-09-19T12:13:45;96300;;;5.04059;91.43249
31162;BME280;17796;49.296;-117.656;2023-09-19T12:28:49;96300;;;5.62971;89.18469
31162;BME280;17796;49.296;-117.656;2023-09-19T12:43:53;96300;;;5.89552;88.77464
31162;BME280;17796;49.296;-117.656;2023-09-19T12:58:58;96300;;;5.95237;90.32616
31162;BME280;17796;49.296;-117.656;2023-09-19T13:14:13;96300;;;5.86567;93.52943
31162;BME280;17796;49.296;-117.656;2023-09-19T13:29:18;96300;;;6.02351;87.28793
31162;BME280;17796;49.296;-117.656;2023-09-19T13:44:22;96400;;;5.84058;90.02592
31162;BME280;17796;49.296;-117.656;2023-09-19T13:59:26;96300;;;6.23724;89.65386
31162;BME280;17796;49.296;-117.656;2023-09-19T14:14:30;96300;;;6.28774;95.46892
31162;BME280;17796;49.296;-117.656;2023-09-19T14:29:33;96300;;;6.77396;92.39181
31162;BME280;17796;49.296;-117.656;2023-09-19T14:44:37;96300;;;6.7006;100.0
31162;BME280;17796;49.296;-117.656;2023-09-19T14:59:41;96300;;;6.73426;100.0
31162;BME280;17796;49.296;-117.656;2023-09-19T15:14:46;96300;;;7.1195;97.65975
31162;BME280;17796;49.296;-117.656;2023-09-19T15:29:50;96300;;;6.59072;99.70361
31162;BME280;17796;49.296;-117.656;2023-09-19T15:44:53;96300;;;7.78643;92.30737
31162;BME280;17796;49.296;-117.656;2023-09-19T15:59:57;96300;;;8.40637;86.20212
31162;BME280;17796;49.296;-117.656;2023-09-19T16:15:01;96300;;;8.70459;90.68384
31162;BME280;17796;49.296;-117.656;2023-09-19T16:30:05;96300;;;8.58422;83.77574
31162;BME280;17796;49.296;-117.656;2023-09-19T16:45:12;96300;;;9.37091;84.7206
31162;BME280;17796;49.296;-117.656;2023-09-19T17:00:17;96300;;;9.78346;78.06799
31162;BME280;17796;49.296;-117.656;2023-09-19T17:15:22;96300;;;9.96259;77.27377
31162;BME280;17796;49.296;-117.656;2023-09-19T17:30:26;96300;;;9.4538;69.1911
31162;BME280;17796;49.296;-117.656;2023-09-19T17:45:30;96200;;;9.81395;66.55486
31162;BME280;17796;49.296;-117.656;2023-09-19T18:00:36;96300;;;10.73467;68.09605
31162;BME280;17796;49.296;-117.656;2023-09-19T18:15:39;96300;;;10.51045;60.47983
31162;BME280;17796;49.296;-117.656;2023-09-19T18:30:43;96300;;;11.08213;58.2378
31162;BME280;17796;49.296;-117.656;2023-09-19T18:45:54;96300;;;12.12482;56.37949
31162;BME280;17796;49.296;-117.656;2023-09-19T19:01:03;96300;;;12.76607;51.55603
31162;BME280;17796;49.296;-117.656;2023-09-19T19:16:07;96300;;;12.39066;53.34596
31162;BME280;17796;49.296;-117.656;2023-09-19T19:31:10;96300;;;11.93458;51.73045
31162;BME280;17796;49.296;-117.656;2023-09-19T19:46:14;96200;;;12.00921;56.77609
31162;BME280;17796;49.296;-117.656;2023-09-19T20:01:18;96200;;;12.45323;52.06261
31162;BME280;17796;49.296;-117.656;2023-09-19T20:16:23;96200;;;12.90645;50.66965
31162;BME280;17796;49.296;-117.656;2023-09-19T20:31:26;96200;;;12.93123;50.25621
31162;BME280;17796;49.296;-117.656;2023-09-19T20:46:30;96200;;;13.47275;49.36659
31162;BME280;17796;49.296;-117.656;2023-09-19T21:01:34;96200;;;13.24248;51.12678
31162;BME280;17796;49.296;-117.656;2023-09-19T21:16:38;96200;;;12.75432;49.58824
31162;BME280;17796;49.296;-117.656;2023-09-19T21:31:42;96200;;;13.58582;45.75875
31162;BME280;17796;49.296;-117.656;2023-09-19T21:46:46;96200;;;13.05478;45.48386
31162;BME280;17796;49.296;-117.656;2023-09-19T22:01:50;96200;;;13.03223;45.06304
31162;BME280;17796;49.296;-117.656;2023-09-19T22:16:55;96200;;;14.06383;45.44679
31162;BME280;17796;49.296;-117.656;2023-09-19T22:31:59;96200;;;14.11051;48.40808
31162;BME280;17796;49.296;-117.656;2023-09-19T22:47:03;96200;;;14.17626;49.28587
31162;BME280;17796;49.296;-117.656;2023-09-19T23:02:07;96200;;;13.52674;52.12812
31162;BME280;17796;49.296;-117.656;2023-09-19T23:17:11;96200;;;13.16181;50.57983
31162;BME280;17796;49.296;-117.656;2023-09-19T23:32:14;96200;;;13.50197;54.48253
31162;BME280;17796;49.296;-117.656;2023-09-19T23:47:18;96200;;;13.41367;53.64561
